Portada
METAR-TAF:

METAR-TAF

Aeroports :

Skyhaven Airport

Rochester, Nova Hampshire, Estats Units d'Amèrica

latitud: 43-16-41N, longitud: 070-55-20W, altitud: 98 m

Observació

L'informe es va fer fa 29 minuts, a les 21:10 UTC
Vent 4 kt del Est
Temperatura 17°C
Humitat 100%
Pressió 1012 hPa
Visibilitat: 2.8 km
Cel cobert a una alçada de 200 ft
pluja, boirina

METAR: KDAW 252110Z AUTO 10004KT 1 3/4SM -RA BR OVC002 17/17 A2988 RMK AO2 P0002 T01720167

Hora: 17:39 (21:39 UTC)


TAF: manca

Observacions i pronòstics meteorològics de més de 4000 aeroports (METAR i TAF).

Les estacions disponibles són els punts grocs i vermells al mapa.

Posi el ratolí al punt desitjat per veure el nom de l'estació.

Feu clic per veure les observacions i els pronòstics meteorològics.

Per canviar el mapa: feu clic els botons verds amb una creu de color negre per apropar; al botó verd amb un guió per allunyar la imatge; o en les fletxes verdes per a mapes adjacents.


METAR-TAF: